createdAt,value
2018-03-25T00:02:22.339Z,4.50
2018-03-25T00:04:49.843Z,4.40
2018-03-25T00:07:17.359Z,4.50
2018-03-25T00:09:44.861Z,4.40
2018-03-25T00:12:12.343Z,4.40
2018-03-25T00:14:39.826Z,4.40
2018-03-25T00:17:07.352Z,4.40
2018-03-25T00:19:34.851Z,4.40
2018-03-25T00:22:02.358Z,4.40
2018-03-25T00:24:29.947Z,4.40
2018-03-25T00:26:57.578Z,4.40
2018-03-25T00:29:25.116Z,4.40
2018-03-25T00:31:52.633Z,4.40
2018-03-25T00:34:20.183Z,4.30
2018-03-25T00:36:47.683Z,4.30
2018-03-25T00:39:15.173Z,4.30
2018-03-25T00:41:43.991Z,4.20
2018-03-25T00:44:14.031Z,4.20
2018-03-25T00:46:41.715Z,4.20
2018-03-25T00:49:09.293Z,4.20
2018-03-25T00:51:37.620Z,4.10
2018-03-25T00:54:05.157Z,4.10
2018-03-25T00:56:32.611Z,4.10
2018-03-25T00:59:00.112Z,4.00
2018-03-25T01:01:27.608Z,4.10
2018-03-25T01:03:55.873Z,4.10
2018-03-25T01:06:24.155Z,4.00
2018-03-25T01:08:51.640Z,4.00
2018-03-25T01:11:19.147Z,4.00
2018-03-25T01:13:46.632Z,4.00
2018-03-25T01:16:14.139Z,4.00
2018-03-25T01:18:41.650Z,4.00
2018-03-25T01:21:10.669Z,3.90
2018-03-25T01:23:38.927Z,3.90
2018-03-25T01:26:07.200Z,3.90
2018-03-25T01:28:34.696Z,3.80
2018-03-25T01:31:02.225Z,3.90
2018-03-25T01:33:30.488Z,3.80
2018-03-25T01:35:59.495Z,3.80
2018-03-25T01:38:27.769Z,3.80
2018-03-25T01:40:55.260Z,3.70
2018-03-25T01:43:23.764Z,3.70
2018-03-25T01:45:51.268Z,3.70
2018-03-25T01:48:18.759Z,3.70
2018-03-25T01:50:46.272Z,3.70
2018-03-25T01:53:13.772Z,3.70
2018-03-25T01:55:42.040Z,3.60
2018-03-25T01:58:09.550Z,3.50
2018-03-25T02:00:37.051Z,3.60
2018-03-25T02:03:05.352Z,3.50
2018-03-25T02:05:32.822Z,3.50
2018-03-25T02:08:00.334Z,3.50
2018-03-25T02:10:27.818Z,3.60
2018-03-25T02:12:55.320Z,3.50
2018-03-25T02:15:22.812Z,3.50
2018-03-25T02:17:50.320Z,3.70
2018-03-25T02:20:17.832Z,3.60
2018-03-25T02:22:45.395Z,3.60
2018-03-25T02:25:13.655Z,3.40
2018-03-25T02:27:41.199Z,3.40
2018-03-25T02:30:08.688Z,3.50
2018-03-25T02:32:36.227Z,3.50
2018-03-25T02:35:03.712Z,3.50
2018-03-25T02:37:31.990Z,3.50
2018-03-25T02:40:00.240Z,3.40
2018-03-25T02:42:27.754Z,3.40
2018-03-25T02:44:55.263Z,3.30
2018-03-25T02:47:22.769Z,3.30
2018-03-25T02:49:51.017Z,3.20
2018-03-25T02:52:19.279Z,3.10
2018-03-25T02:54:46.803Z,3.10
2018-03-25T02:57:14.329Z,3.10
2018-03-25T02:59:42.584Z,3.00
2018-03-25T03:02:10.096Z,3.00
2018-03-25T03:04:37.580Z,3.00
2018-03-25T03:07:05.126Z,3.00
2018-03-25T03:09:32.610Z,3.00
2018-03-25T03:12:00.128Z,3.00
2018-03-25T03:14:27.623Z,3.00
2018-03-25T03:16:55.123Z,3.00
2018-03-25T03:19:23.618Z,2.90
2018-03-25T03:21:51.120Z,2.90
2018-03-25T03:24:18.672Z,2.90
2018-03-25T03:26:47.004Z,2.90
2018-03-25T03:29:15.268Z,2.80
2018-03-25T03:31:43.525Z,2.70
2018-03-25T03:34:11.007Z,2.70
2018-03-25T03:36:39.282Z,2.70
2018-03-25T03:39:07.539Z,2.60
2018-03-25T03:41:36.550Z,2.60
2018-03-25T03:44:04.808Z,2.60
2018-03-25T03:46:32.388Z,2.60
2018-03-25T03:49:00.640Z,2.60
2018-03-25T03:51:28.144Z,2.50
2018-03-25T03:53:55.626Z,2.50
2018-03-25T03:56:23.409Z,2.50
2018-03-25T03:58:50.893Z,2.40
2018-03-25T04:01:18.386Z,2.40
2018-03-25T04:03:45.886Z,2.40
2018-03-25T04:06:13.379Z,2.40
2018-03-25T04:08:41.633Z,2.40
2018-03-25T04:11:09.910Z,2.50
2018-03-25T04:13:37.392Z,2.40
2018-03-25T04:16:05.669Z,2.60
2018-03-25T04:18:33.177Z,2.60
2018-03-25T04:21:00.658Z,2.60
2018-03-25T04:23:28.167Z,2.70
2018-03-25T04:25:56.414Z,2.80
2018-03-25T04:28:23.987Z,2.80
2018-03-25T04:30:51.448Z,2.70
2018-03-25T04:33:19.715Z,2.70
2018-03-25T04:35:47.194Z,2.70
2018-03-25T04:38:15.459Z,2.60
2018-03-25T04:40:43.731Z,2.70
2018-03-25T04:43:11.227Z,2.70
2018-03-25T04:45:38.729Z,2.70
2018-03-25T04:48:06.217Z,2.70
2018-03-25T04:50:34.471Z,2.50
2018-03-25T04:53:01.955Z,2.50
2018-03-25T04:55:30.202Z,2.50
2018-03-25T04:57:57.713Z,2.50
2018-03-25T05:00:25.197Z,2.50
2018-03-25T05:02:52.708Z,2.50
2018-03-25T05:05:20.962Z,2.40
2018-03-25T05:07:48.526Z,2.40
2018-03-25T05:10:16.097Z,2.50
2018-03-25T05:12:43.590Z,2.50
2018-03-25T05:15:11.070Z,2.50
2018-03-25T05:17:38.576Z,2.50
2018-03-25T05:20:06.131Z,2.50
2018-03-25T05:22:33.633Z,2.30
2018-03-25T05:25:01.124Z,2.30
2018-03-25T05:27:28.628Z,2.30
2018-03-25T05:29:56.862Z,2.50
2018-03-25T05:32:24.354Z,2.50
2018-03-25T05:34:52.613Z,2.30
2018-03-25T05:37:20.106Z,2.30
2018-03-25T05:39:48.721Z,2.50
2018-03-25T05:42:16.216Z,2.50
2018-03-25T05:44:44.468Z,2.50
2018-03-25T05:47:11.978Z,2.50
2018-03-25T05:49:39.445Z,2.60
2018-03-25T05:52:07.942Z,2.70
2018-03-25T05:54:35.451Z,2.70
2018-03-25T05:57:02.951Z,2.60
2018-03-25T05:59:30.456Z,2.60
2018-03-25T06:01:57.962Z,2.50
2018-03-25T06:04:25.459Z,2.50
2018-03-25T06:06:52.947Z,2.50
2018-03-25T06:09:20.431Z,2.50
2018-03-25T06:11:48.695Z,2.50
2018-03-25T06:14:16.958Z,2.50
2018-03-25T06:16:44.456Z,2.50
2018-03-25T06:19:11.944Z,2.60
2018-03-25T06:21:39.477Z,2.60
2018-03-25T06:24:06.967Z,2.60
2018-03-25T06:26:34.479Z,2.70
2018-03-25T06:29:02.773Z,2.90
2018-03-25T06:31:30.210Z,2.90
2018-03-25T06:33:58.483Z,2.90
2018-03-25T06:36:26.801Z,2.80
2018-03-25T06:38:54.354Z,2.80
2018-03-25T06:41:21.915Z,2.90
2018-03-25T06:43:49.399Z,3.00
2018-03-25T06:46:16.894Z,3.00
2018-03-25T06:48:44.397Z,3.10
2018-03-25T06:51:11.884Z,3.20
2018-03-25T06:53:39.375Z,3.20
2018-03-25T06:56:07.631Z,3.20
2018-03-25T06:58:35.130Z,3.20
2018-03-25T07:01:02.634Z,3.30
2018-03-25T07:03:30.153Z,3.50
2018-03-25T07:05:57.644Z,3.60
2018-03-25T07:08:25.138Z,3.60
2018-03-25T07:10:52.623Z,3.70
2018-03-25T07:13:20.114Z,3.70
2018-03-25T07:15:47.606Z,3.70
2018-03-25T07:18:15.094Z,3.90
2018-03-25T07:20:42.695Z,4.00
2018-03-25T07:23:10.607Z,4.00
2018-03-25T07:25:38.880Z,4.20
2018-03-25T07:28:06.619Z,4.10
2018-03-25T07:30:34.155Z,4.30
2018-03-25T07:33:01.719Z,4.40
2018-03-25T07:35:29.931Z,4.50
2018-03-25T07:37:57.497Z,4.40
2018-03-25T07:40:24.921Z,4.60
2018-03-25T07:42:52.515Z,4.70
2018-03-25T07:45:20.024Z,4.70
2018-03-25T07:47:47.547Z,4.80
2018-03-25T07:50:15.835Z,5.10
2018-03-25T07:52:44.074Z,5.30
2018-03-25T07:55:11.639Z,5.20
2018-03-25T07:57:39.181Z,5.50
2018-03-25T08:00:06.715Z,5.70
2018-03-25T08:02:34.279Z,6.00
2018-03-25T08:05:01.838Z,6.00
2018-03-25T08:07:29.533Z,6.00
2018-03-25T08:09:57.184Z,6.10
2018-03-25T08:12:24.774Z,6.30
2018-03-25T08:14:52.296Z,6.30
2018-03-25T08:17:19.792Z,6.20
2018-03-25T08:19:47.265Z,6.40
2018-03-25T08:22:14.805Z,6.50
2018-03-25T08:24:42.331Z,6.70
2018-03-25T08:27:10.616Z,7.00
2018-03-25T08:29:38.323Z,6.90
2018-03-25T08:32:05.843Z,7.10
2018-03-25T08:34:33.313Z,7.20
2018-03-25T08:37:00.858Z,7.10
2018-03-25T08:39:28.438Z,7.20
2018-03-25T08:41:56.717Z,7.30
2018-03-25T08:44:24.201Z,7.30
2018-03-25T08:46:52.633Z,7.20
2018-03-25T08:49:20.917Z,7.20
2018-03-25T08:51:48.474Z,7.20
2018-03-25T08:54:16.021Z,7.40
2018-03-25T08:56:44.310Z,7.60
2018-03-25T08:59:11.806Z,7.60
2018-03-25T09:01:39.307Z,7.70
2018-03-25T09:04:06.789Z,7.70
2018-03-25T09:06:34.243Z,7.80
2018-03-25T09:09:01.869Z,8.00
2018-03-25T09:11:30.537Z,8.10
2018-03-25T09:13:58.044Z,8.10
2018-03-25T09:16:27.552Z,8.20
2018-03-25T09:18:56.842Z,8.40
2018-03-25T09:21:25.138Z,8.50
2018-03-25T09:23:52.614Z,8.50
2018-03-25T09:26:20.139Z,8.60
2018-03-25T09:28:47.688Z,8.60
2018-03-25T09:31:15.148Z,8.70
2018-03-25T09:33:43.445Z,8.90
2018-03-25T09:36:11.776Z,9.00
2018-03-25T09:38:39.260Z,9.00
2018-03-25T09:41:07.600Z,9.20
2018-03-25T09:43:35.091Z,9.20
2018-03-25T09:46:02.718Z,9.30
2018-03-25T09:48:30.964Z,9.40
2018-03-25T09:50:58.413Z,9.50
2018-03-25T09:53:26.668Z,9.80
2018-03-25T09:55:54.136Z,9.80
2018-03-25T09:58:24.079Z,10.10
2018-03-25T10:00:57.812Z,10.10
2018-03-25T10:03:31.024Z,10.30
2018-03-25T10:05:58.515Z,10.50
2018-03-25T10:08:26.754Z,10.70
2018-03-25T10:10:54.336Z,10.70
2018-03-25T10:13:22.572Z,11.00
2018-03-25T10:15:50.053Z,11.00
2018-03-25T10:18:17.572Z,11.10
2018-03-25T10:20:45.212Z,11.20
2018-03-25T10:23:13.444Z,11.20
2018-03-25T10:25:42.676Z,11.20
2018-03-25T10:28:10.935Z,11.50
2018-03-25T10:30:38.422Z,11.50
2018-03-25T10:33:06.681Z,11.50
2018-03-25T10:35:34.151Z,11.50
2018-03-25T10:38:02.394Z,11.80
2018-03-25T10:40:30.923Z,11.70
2018-03-25T10:42:59.882Z,11.90
2018-03-25T10:45:27.359Z,11.90
2018-03-25T10:47:55.689Z,11.90
2018-03-25T10:50:23.165Z,11.90
2018-03-25T10:52:50.639Z,12.00
2018-03-25T10:55:18.119Z,12.10
2018-03-25T10:57:46.395Z,12.10
2018-03-25T11:00:14.902Z,12.10
2018-03-25T11:02:42.382Z,12.10
2018-03-25T11:05:09.847Z,12.10
2018-03-25T11:07:37.369Z,12.20
2018-03-25T11:10:07.650Z,12.30
2018-03-25T11:12:35.129Z,12.20
2018-03-25T11:15:02.637Z,12.30
2018-03-25T11:17:31.184Z,12.40
2018-03-25T11:19:58.883Z,12.50
2018-03-25T11:22:26.380Z,12.50
2018-03-25T11:24:53.983Z,12.40
2018-03-25T11:27:21.523Z,12.40
2018-03-25T11:29:49.976Z,12.50
2018-03-25T11:32:17.489Z,12.40
2018-03-25T11:34:45.968Z,12.60
2018-03-25T11:37:13.453Z,12.80
2018-03-25T11:39:41.717Z,13.00
2018-03-25T11:42:09.445Z,13.30
2018-03-25T11:44:36.928Z,13.40
2018-03-25T11:47:04.382Z,13.50
2018-03-25T11:49:31.870Z,13.60
2018-03-25T11:51:59.412Z,13.60
2018-03-25T11:54:26.871Z,13.80
2018-03-25T11:56:54.443Z,13.90
2018-03-25T11:59:22.028Z,14.10
2018-03-25T12:01:49.547Z,14.00
2018-03-25T12:04:17.003Z,14.10
2018-03-25T12:06:44.476Z,14.20
2018-03-25T12:09:11.950Z,14.50
2018-03-25T12:11:39.436Z,14.80
2018-03-25T12:14:07.695Z,15.10
2018-03-25T12:16:35.168Z,15.10
2018-03-25T12:19:02.749Z,15.40
2018-03-25T12:21:31.031Z,15.70
2018-03-25T12:23:59.282Z,15.50
2018-03-25T12:26:26.744Z,15.40
2018-03-25T12:28:54.226Z,15.70
2018-03-25T12:31:22.475Z,15.80
2018-03-25T12:33:49.986Z,15.80
2018-03-25T12:36:17.449Z,16.20
2018-03-25T12:38:44.913Z,16.40
2018-03-25T12:41:12.569Z,16.70
2018-03-25T12:43:40.031Z,16.80
2018-03-25T12:46:07.551Z,16.60
2018-03-25T12:48:35.786Z,16.80
2018-03-25T12:51:03.261Z,16.70
2018-03-25T12:53:30.724Z,17.00
2018-03-25T12:55:58.962Z,17.00
2018-03-25T12:58:26.448Z,17.00
2018-03-25T13:00:53.938Z,16.80
2018-03-25T13:03:22.230Z,17.30
2018-03-25T13:05:50.766Z,17.60
2018-03-25T13:08:18.623Z,17.60
2018-03-25T13:10:46.127Z,17.70
2018-03-25T13:13:14.372Z,17.60
2018-03-25T13:15:41.929Z,17.60
2018-03-25T13:18:09.459Z,17.80
2018-03-25T13:20:36.918Z,17.70
2018-03-25T13:23:04.453Z,17.80
2018-03-25T13:25:32.692Z,17.90
2018-03-25T13:28:00.186Z,17.90
2018-03-25T13:30:28.407Z,17.80
2018-03-25T13:32:55.880Z,17.70
2018-03-25T13:35:23.708Z,17.40
2018-03-25T13:37:51.163Z,17.60
2018-03-25T13:40:18.645Z,17.70
2018-03-25T13:42:46.144Z,17.80
2018-03-25T13:45:14.012Z,18.00
2018-03-25T13:47:41.478Z,17.90
2018-03-25T13:50:09.776Z,17.70
2018-03-25T13:52:37.249Z,17.70
2018-03-25T13:55:04.746Z,17.70
2018-03-25T13:57:33.740Z,17.50
2018-03-25T14:00:01.199Z,17.50
2018-03-25T14:02:28.660Z,17.20
2018-03-25T14:04:56.312Z,17.20
2018-03-25T14:07:23.941Z,17.30
2018-03-25T14:09:51.424Z,17.30
2018-03-25T14:12:18.884Z,17.20
2018-03-25T14:14:46.451Z,17.20
2018-03-25T14:17:13.903Z,16.90
2018-03-25T14:19:41.440Z,16.90
2018-03-25T14:22:08.998Z,16.80
2018-03-25T14:24:36.469Z,16.80
2018-03-25T14:27:04.000Z,16.70
2018-03-25T14:29:31.466Z,16.80
2018-03-25T14:31:59.037Z,16.80
2018-03-25T14:34:26.532Z,16.70
2018-03-25T14:36:53.986Z,16.40
2018-03-25T14:39:21.524Z,16.30
2018-03-25T14:41:49.072Z,16.10
2018-03-25T14:44:16.564Z,16.00
2018-03-25T14:46:44.022Z,15.90
2018-03-25T14:49:11.902Z,15.70
2018-03-25T14:51:39.358Z,15.60
2018-03-25T14:54:07.675Z,15.40
2018-03-25T14:56:35.934Z,15.20
2018-03-25T14:59:03.562Z,15.20
2018-03-25T15:01:31.074Z,15.00
2018-03-25T15:03:58.571Z,15.00
2018-03-25T15:06:26.046Z,14.80
2018-03-25T15:08:53.624Z,14.80
2018-03-25T15:11:21.883Z,14.60
2018-03-25T15:13:49.361Z,14.60
2018-03-25T15:16:16.834Z,14.60
2018-03-25T15:18:45.073Z,14.40
2018-03-25T15:21:12.741Z,14.40
2018-03-25T15:23:40.250Z,14.30
2018-03-25T15:26:07.728Z,14.20
2018-03-25T15:28:35.191Z,14.10
2018-03-25T15:31:02.795Z,14.00
2018-03-25T15:33:30.279Z,14.00
2018-03-25T15:35:57.747Z,13.90
2018-03-25T15:38:25.237Z,13.90
2018-03-25T15:40:52.822Z,13.80
2018-03-25T15:43:21.043Z,13.50
2018-03-25T15:45:48.614Z,13.50
2018-03-25T15:48:17.079Z,13.30
2018-03-25T15:50:45.359Z,13.20
2018-03-25T15:53:12.824Z,13.10
2018-03-25T15:55:40.290Z,13.10
2018-03-25T15:58:07.810Z,13.10
2018-03-25T16:00:35.400Z,13.10
2018-03-25T16:03:03.709Z,13.00
2018-03-25T16:05:31.192Z,13.00
2018-03-25T16:07:58.686Z,12.90
2018-03-25T16:10:26.592Z,12.70
2018-03-25T16:12:54.071Z,12.60
2018-03-25T16:15:21.565Z,12.60
2018-03-25T16:17:49.801Z,12.60
2018-03-25T16:20:17.341Z,12.50
2018-03-25T16:22:44.854Z,12.50
2018-03-25T16:25:13.179Z,12.40
2018-03-25T16:27:40.641Z,12.40
2018-03-25T16:30:08.310Z,12.30
2018-03-25T16:32:35.784Z,12.20
2018-03-25T16:35:03.286Z,12.20
2018-03-25T16:37:31.498Z,12.10
2018-03-25T16:39:59.022Z,12.10
2018-03-25T16:42:26.563Z,12.00
2018-03-25T16:44:54.882Z,11.90
2018-03-25T16:47:22.334Z,11.90
2018-03-25T16:49:49.799Z,11.80
2018-03-25T16:52:17.319Z,11.70
2018-03-25T16:54:45.551Z,11.60
2018-03-25T16:57:13.099Z,11.60
2018-03-25T16:59:40.567Z,11.50
2018-03-25T17:02:08.024Z,11.50
2018-03-25T17:04:35.502Z,11.40
2018-03-25T17:07:03.263Z,11.30
2018-03-25T17:09:30.731Z,11.20
2018-03-25T17:11:58.216Z,11.10
2018-03-25T17:14:26.490Z,11.00
2018-03-25T17:16:54.771Z,10.90
2018-03-25T17:19:23.051Z,10.80
2018-03-25T17:21:51.401Z,10.70
2018-03-25T17:24:18.843Z,10.70
2018-03-25T17:26:46.740Z,10.70
2018-03-25T17:29:14.228Z,10.60
2018-03-25T17:31:41.772Z,10.50
2018-03-25T17:34:09.992Z,10.30
2018-03-25T17:36:37.536Z,10.30
2018-03-25T17:39:04.999Z,10.30
2018-03-25T17:41:32.614Z,10.20
2018-03-25T17:44:00.850Z,10.00
2018-03-25T17:46:28.310Z,10.00
2018-03-25T17:48:55.827Z,10.00
2018-03-25T17:51:23.533Z,10.00
2018-03-25T17:53:50.999Z,9.90
2018-03-25T17:56:18.499Z,9.80
2018-03-25T17:58:46.741Z,9.70
2018-03-25T18:01:14.289Z,9.70
2018-03-25T18:03:41.767Z,9.70
2018-03-25T18:06:09.252Z,9.70
2018-03-25T18:08:37.470Z,9.60
2018-03-25T18:11:05.240Z,9.50
2018-03-25T18:13:32.779Z,9.50
2018-03-25T18:16:00.240Z,9.50
2018-03-25T18:18:27.722Z,9.50
2018-03-25T18:20:56.291Z,9.50
2018-03-25T18:23:23.027Z,9.50
2018-03-25T18:25:50.551Z,9.40
2018-03-25T18:28:18.027Z,9.40
2018-03-25T18:30:45.593Z,9.40
2018-03-25T18:33:13.044Z,9.40
2018-03-25T18:35:40.608Z,9.30
2018-03-25T18:38:08.495Z,9.30
2018-03-25T18:40:35.959Z,9.30
2018-03-25T18:43:03.423Z,9.20
2018-03-25T18:45:30.998Z,9.20
2018-03-25T18:47:58.630Z,9.10
2018-03-25T18:50:26.100Z,9.20
2018-03-25T18:52:53.665Z,9.10
2018-03-25T18:55:21.162Z,9.10
2018-03-25T18:57:48.602Z,9.00
2018-03-25T19:00:17.123Z,9.00
2018-03-25T19:02:45.486Z,9.00
2018-03-25T19:05:13.253Z,8.90
2018-03-25T19:07:40.809Z,8.90
2018-03-25T19:10:08.301Z,8.90
2018-03-25T19:12:35.775Z,8.90
2018-03-25T19:15:05.269Z,8.90
2018-03-25T19:17:32.920Z,8.90
2018-03-25T19:20:01.150Z,8.90
2018-03-25T19:22:28.653Z,8.80
2018-03-25T19:24:56.958Z,8.90
2018-03-25T19:27:24.466Z,8.80
2018-03-25T19:29:51.939Z,8.80
2018-03-25T19:32:20.237Z,8.80
2018-03-25T19:34:48.457Z,8.70
2018-03-25T19:37:16.010Z,8.70
2018-03-25T19:39:43.520Z,8.70
2018-03-25T19:42:11.746Z,8.60
2018-03-25T19:44:39.227Z,8.60
2018-03-25T19:47:06.734Z,8.60
2018-03-25T19:49:34.930Z,8.60
2018-03-25T19:52:02.486Z,8.60
2018-03-25T19:54:29.937Z,8.60
2018-03-25T19:56:57.440Z,8.60
2018-03-25T19:59:25.838Z,8.60
2018-03-25T20:01:54.070Z,8.50
2018-03-25T20:04:21.531Z,8.50
2018-03-25T20:06:48.999Z,8.50
2018-03-25T20:09:16.490Z,8.50
2018-03-25T20:11:44.734Z,8.40
2018-03-25T20:14:12.224Z,8.40
2018-03-25T20:16:39.683Z,8.40
2018-03-25T20:19:07.938Z,8.30
2018-03-25T20:21:35.431Z,8.30
2018-03-25T20:24:03.671Z,8.30
2018-03-25T20:26:31.212Z,8.20
2018-03-25T20:28:58.709Z,8.30
2018-03-25T20:31:26.292Z,8.30
2018-03-25T20:33:53.770Z,8.30
2018-03-25T20:36:21.259Z,8.30
2018-03-25T20:38:48.764Z,8.40
2018-03-25T20:41:16.249Z,8.40
2018-03-25T20:43:43.722Z,8.50
2018-03-25T20:46:11.280Z,8.50
2018-03-25T20:48:38.756Z,8.60
2018-03-25T20:51:06.278Z,8.60
2018-03-25T20:53:33.769Z,8.60
2018-03-25T20:56:01.333Z,8.50
2018-03-25T20:58:28.806Z,8.50
2018-03-25T21:00:56.315Z,8.50
2018-03-25T21:03:23.780Z,8.50
2018-03-25T21:05:51.250Z,8.50
2018-03-25T21:08:18.714Z,8.50
2018-03-25T21:10:46.192Z,8.50
2018-03-25T21:13:13.642Z,8.50
2018-03-25T21:15:41.117Z,8.50
2018-03-25T21:18:10.110Z,8.40
2018-03-25T21:20:37.599Z,8.40
2018-03-25T21:23:05.871Z,8.40
2018-03-25T21:25:34.107Z,8.40
2018-03-25T21:28:01.566Z,8.40
2018-03-25T21:30:29.042Z,8.40
2018-03-25T21:32:56.502Z,8.40
2018-03-25T21:35:23.975Z,8.50
2018-03-25T21:37:52.216Z,8.50
2018-03-25T21:40:19.714Z,8.50
2018-03-25T21:42:47.957Z,8.50
2018-03-25T21:45:15.433Z,8.50
2018-03-25T21:47:42.916Z,8.50
2018-03-25T21:50:11.134Z,8.60
2018-03-25T21:52:38.619Z,8.50
2018-03-25T21:55:06.097Z,8.60
2018-03-25T21:57:33.561Z,8.70
2018-03-25T22:00:01.793Z,8.80
2018-03-25T22:02:29.313Z,8.80
2018-03-25T22:04:56.798Z,8.90
2018-03-25T22:07:24.303Z,8.90
2018-03-25T22:09:52.591Z,8.90
2018-03-25T22:12:20.838Z,8.80
2018-03-25T22:14:48.306Z,8.80
2018-03-25T22:17:15.766Z,8.80
2018-03-25T22:19:43.237Z,8.80
2018-03-25T22:22:11.478Z,8.70
2018-03-25T22:24:38.964Z,8.70
2018-03-25T22:27:06.423Z,8.70
2018-03-25T22:29:34.662Z,8.70
2018-03-25T22:32:02.123Z,8.70
2018-03-25T22:34:29.629Z,8.70
2018-03-25T22:36:58.018Z,8.70
2018-03-25T22:39:26.356Z,8.80
2018-03-25T22:41:53.819Z,8.80
2018-03-25T22:44:21.275Z,8.70
2018-03-25T22:46:48.752Z,8.70
2018-03-25T22:49:16.977Z,8.80
2018-03-25T22:51:44.447Z,8.80
2018-03-25T22:54:11.951Z,8.80
2018-03-25T22:56:40.197Z,8.70
2018-03-25T22:59:07.638Z,8.60
2018-03-25T23:01:35.283Z,8.60
2018-03-25T23:04:02.790Z,8.60
2018-03-25T23:06:30.267Z,8.60
2018-03-25T23:08:58.524Z,8.50
2018-03-25T23:11:26.012Z,8.50
2018-03-25T23:13:53.493Z,8.50
2018-03-25T23:16:20.956Z,8.50
2018-03-25T23:18:48.410Z,8.60
2018-03-25T23:21:15.882Z,8.50
2018-03-25T23:23:43.363Z,8.60
2018-03-25T23:26:10.834Z,8.60
2018-03-25T23:28:38.316Z,8.60
2018-03-25T23:31:05.833Z,8.60
2018-03-25T23:33:33.283Z,8.50
2018-03-25T23:36:00.751Z,8.40
2018-03-25T23:38:28.210Z,8.30
2018-03-25T23:40:55.682Z,8.20
2018-03-25T23:43:23.169Z,8.10
2018-03-25T23:45:51.399Z,8.30
2018-03-25T23:48:18.864Z,8.30
2018-03-25T23:50:47.104Z,8.30
2018-03-25T23:53:14.573Z,8.20
2018-03-25T23:55:42.057Z,8.20
2018-03-25T23:58:09.651Z,8.20
